createdAt,value
2018-12-29T00:00:22.733Z,100896.00
2018-12-29T00:02:52.065Z,100906.00
2018-12-29T00:05:21.183Z,100908.00
2018-12-29T00:07:50.613Z,100908.00
2018-12-29T00:10:19.820Z,100905.00
2018-12-29T00:12:49.483Z,100907.00
2018-12-29T00:15:18.850Z,100905.00
2018-12-29T00:17:48.091Z,100904.00
2018-12-29T00:20:17.463Z,100904.00
2018-12-29T00:22:46.629Z,100910.00
2018-12-29T00:25:15.931Z,100906.00
2018-12-29T00:27:46.051Z,100920.00
2018-12-29T00:30:15.472Z,100912.00
2018-12-29T00:32:44.789Z,100911.00
2018-12-29T00:35:14.187Z,100915.00
2018-12-29T00:37:43.566Z,100914.00
2018-12-29T00:40:13.092Z,100904.00
2018-12-29T00:42:42.299Z,100903.00
2018-12-29T00:45:11.440Z,100906.00
2018-12-29T00:47:40.680Z,100905.00
2018-12-29T00:50:09.787Z,100908.00
2018-12-29T00:52:39.149Z,100905.00
2018-12-29T00:55:08.283Z,100908.00
2018-12-29T00:57:37.393Z,100905.00
2018-12-29T01:00:07.337Z,100896.00
2018-12-29T01:02:36.437Z,100902.00
2018-12-29T01:05:05.546Z,100905.00
2018-12-29T01:07:34.689Z,100899.00
2018-12-29T01:10:05.073Z,100902.00
2018-12-29T01:12:34.444Z,100898.00
2018-12-29T01:15:09.695Z,100906.00
2018-12-29T01:17:34.593Z,100897.00
2018-12-29T01:20:03.794Z,100904.00
2018-12-29T01:22:33.041Z,100899.00
2018-12-29T01:25:02.121Z,100898.00
2018-12-29T01:27:31.264Z,100899.00
2018-12-29T01:30:00.609Z,100898.00
2018-12-29T01:32:29.741Z,100890.00
2018-12-29T01:34:59.094Z,100891.00
2018-12-29T01:37:28.457Z,100898.00
2018-12-29T01:39:57.582Z,100891.00
2018-12-29T01:42:26.711Z,100883.00
2018-12-29T01:44:55.832Z,100890.00
2018-12-29T01:47:25.251Z,100897.00
2018-12-29T01:49:54.346Z,100903.00
2018-12-29T01:52:23.719Z,100901.00
2018-12-29T01:54:52.874Z,100870.00
2018-12-29T01:57:41.425Z,100908.00
2018-12-29T02:00:10.841Z,100901.00
2018-12-29T02:02:39.940Z,100901.00
2018-12-29T02:05:12.563Z,100897.00
2018-12-29T02:07:41.774Z,100902.00
2018-12-29T02:10:10.981Z,100908.00
2018-12-29T02:12:40.941Z,100896.00
2018-12-29T02:15:10.060Z,100897.00
2018-12-29T02:17:39.762Z,100896.00
2018-12-29T02:20:09.133Z,100893.00
2018-12-29T02:22:38.252Z,100900.00
2018-12-29T02:25:07.610Z,100887.00
2018-12-29T02:27:36.750Z,100896.00
2018-12-29T02:30:06.462Z,100900.00
2018-12-29T02:32:35.904Z,100883.00
2018-12-29T02:35:05.523Z,100883.00
2018-12-29T02:37:34.712Z,100875.00
2018-12-29T02:40:05.684Z,100869.00
2018-12-29T02:42:34.933Z,100877.00
2018-12-29T02:45:04.445Z,100873.00
2018-12-29T02:47:33.707Z,100864.00
2018-12-29T02:50:02.929Z,100866.00
2018-12-29T02:52:32.980Z,100867.00
2018-12-29T02:55:02.169Z,100870.00
2018-12-29T02:57:31.335Z,100869.00
2018-12-29T03:00:00.471Z,100864.00
2018-12-29T03:02:29.595Z,100861.00
2018-12-29T03:04:58.969Z,100856.00
2018-12-29T03:07:28.334Z,100856.00
2018-12-29T03:09:57.837Z,100858.00
2018-12-29T03:12:26.942Z,100861.00
2018-12-29T03:14:56.039Z,100853.00
2018-12-29T03:17:25.530Z,100864.00
2018-12-29T03:19:54.947Z,100848.00
2018-12-29T03:22:24.239Z,100854.00
2018-12-29T03:24:53.795Z,100865.00
2018-12-29T03:27:23.236Z,100862.00
2018-12-29T03:29:52.359Z,100853.00
2018-12-29T03:32:21.704Z,100853.00
2018-12-29T03:34:50.801Z,100835.00
2018-12-29T03:37:19.936Z,100849.00
2018-12-29T03:39:49.271Z,100838.00
2018-12-29T03:42:18.752Z,100844.00
2018-12-29T03:44:47.847Z,100828.00
2018-12-29T03:47:17.225Z,100843.00
2018-12-29T03:49:46.314Z,100838.00
2018-12-29T03:52:15.478Z,100834.00
2018-12-29T03:54:44.610Z,100833.00
2018-12-29T03:57:14.057Z,100834.00
2018-12-29T03:59:43.230Z,100836.00
2018-12-29T04:02:12.492Z,100828.00
2018-12-29T04:04:41.804Z,100836.00
2018-12-29T04:07:11.169Z,100833.00
2018-12-29T04:09:40.592Z,100833.00
2018-12-29T04:12:13.033Z,100830.00
2018-12-29T04:14:42.952Z,100834.00
2018-12-29T04:17:12.400Z,100830.00
2018-12-29T04:19:41.989Z,100828.00
2018-12-29T04:22:11.924Z,100826.00
2018-12-29T04:24:41.101Z,100833.00
2018-12-29T04:27:10.651Z,100826.00
2018-12-29T04:29:40.074Z,100826.00
2018-12-29T04:32:10.514Z,100828.00
2018-12-29T04:34:40.074Z,100836.00
2018-12-29T04:37:09.255Z,100821.00
2018-12-29T04:39:38.424Z,100835.00
2018-12-29T04:42:07.635Z,100832.00
2018-12-29T04:44:36.982Z,100828.00
2018-12-29T04:47:06.426Z,100830.00
2018-12-29T04:49:35.479Z,100844.00
2018-12-29T04:52:04.645Z,100835.00
2018-12-29T04:54:33.783Z,100835.00
2018-12-29T04:57:03.158Z,100831.00
2018-12-29T04:59:32.383Z,100831.00
2018-12-29T05:02:01.740Z,100824.00
2018-12-29T05:04:31.150Z,100833.00
2018-12-29T05:07:00.650Z,100838.00
2018-12-29T05:09:30.163Z,100831.00
2018-12-29T05:11:59.314Z,100832.00
2018-12-29T05:14:28.594Z,100850.00
2018-12-29T05:16:58.046Z,100845.00
2018-12-29T05:19:27.417Z,100843.00
2018-12-29T05:21:56.543Z,100837.00
2018-12-29T05:24:25.640Z,100847.00
2018-12-29T05:26:54.749Z,100838.00
2018-12-29T05:29:24.192Z,100836.00
2018-12-29T05:31:53.285Z,100838.00
2018-12-29T05:34:22.489Z,100847.00
2018-12-29T05:36:51.896Z,100853.00
2018-12-29T05:39:21.015Z,100850.00
2018-12-29T05:41:50.425Z,100848.00
2018-12-29T05:44:19.554Z,100852.00
2018-12-29T05:46:48.683Z,100858.00
2018-12-29T05:49:17.806Z,100857.00
2018-12-29T05:51:47.155Z,100836.00
2018-12-29T05:54:16.337Z,100855.00
2018-12-29T05:56:45.430Z,100852.00
2018-12-29T05:59:14.787Z,100850.00
2018-12-29T06:01:43.982Z,100860.00
2018-12-29T06:04:14.713Z,100852.00
2018-12-29T06:06:44.074Z,100857.00
2018-12-29T06:09:13.165Z,100861.00
2018-12-29T06:11:42.543Z,100860.00
2018-12-29T06:14:11.701Z,100867.00
2018-12-29T06:16:41.096Z,100869.00
2018-12-29T06:19:10.450Z,100870.00
2018-12-29T06:21:39.545Z,100865.00
2018-12-29T06:24:08.922Z,100873.00
2018-12-29T06:26:38.046Z,100873.00
2018-12-29T06:29:07.787Z,100867.00
2018-12-29T06:31:36.885Z,100869.00
2018-12-29T06:34:06.036Z,100865.00
2018-12-29T06:36:35.544Z,100868.00
2018-12-29T06:39:06.241Z,100868.00
2018-12-29T06:41:35.343Z,100865.00
2018-12-29T06:44:04.485Z,100863.00
2018-12-29T06:46:35.108Z,100872.00
2018-12-29T06:49:04.575Z,100875.00
2018-12-29T06:51:33.756Z,100878.00
2018-12-29T06:54:03.125Z,100879.00
2018-12-29T06:56:32.260Z,100878.00
2018-12-29T06:59:01.755Z,100880.00
2018-12-29T07:01:31.399Z,100889.00
2018-12-29T07:04:00.549Z,100878.00
2018-12-29T07:06:29.739Z,100884.00
2018-12-29T07:08:58.847Z,100888.00
2018-12-29T07:11:28.292Z,100883.00
2018-12-29T07:13:57.695Z,100890.00
2018-12-29T07:16:28.468Z,100892.00
2018-12-29T07:18:57.750Z,100891.00
2018-12-29T07:21:26.893Z,100889.00
2018-12-29T07:23:56.332Z,100897.00
2018-12-29T07:26:25.454Z,100899.00
2018-12-29T07:28:54.574Z,100896.00
2018-12-29T07:31:23.938Z,100898.00
2018-12-29T07:33:53.022Z,100896.00
2018-12-29T07:36:22.406Z,100907.00
2018-12-29T07:38:51.562Z,100907.00
2018-12-29T07:41:21.239Z,100903.00
2018-12-29T07:43:50.583Z,100898.00
2018-12-29T07:46:19.753Z,100903.00
2018-12-29T07:48:49.132Z,100900.00
2018-12-29T07:51:18.258Z,100908.00
2018-12-29T07:53:47.463Z,100909.00
2018-12-29T07:56:16.997Z,100900.00
2018-12-29T07:58:46.439Z,100908.00
2018-12-29T08:01:15.534Z,100909.00
2018-12-29T08:03:44.663Z,100899.00
2018-12-29T08:06:13.815Z,100908.00
2018-12-29T08:08:43.278Z,100905.00
2018-12-29T08:11:12.714Z,100902.00
2018-12-29T08:13:42.063Z,100906.00
2018-12-29T08:16:11.764Z,100896.00
2018-12-29T08:18:41.326Z,100907.00
2018-12-29T08:21:10.490Z,100906.00
2018-12-29T08:23:39.663Z,100911.00
2018-12-29T08:26:09.094Z,100906.00
2018-12-29T08:28:38.198Z,100896.00
2018-12-29T08:31:09.037Z,100913.00
2018-12-29T08:33:38.171Z,100911.00
2018-12-29T08:36:07.528Z,100915.00
2018-12-29T08:38:36.650Z,100914.00
2018-12-29T08:41:05.750Z,100905.00
2018-12-29T08:43:34.854Z,100911.00
2018-12-29T08:46:04.209Z,100911.00
2018-12-29T08:48:33.339Z,100915.00
2018-12-29T08:51:02.949Z,100912.00
2018-12-29T08:53:32.071Z,100927.00
2018-12-29T08:56:01.270Z,100925.00
2018-12-29T08:58:30.625Z,100929.00
2018-12-29T09:00:59.753Z,100926.00
2018-12-29T09:03:29.338Z,100923.00
2018-12-29T09:05:58.697Z,100923.00
2018-12-29T09:08:28.127Z,100925.00
2018-12-29T09:10:57.215Z,100928.00
2018-12-29T09:13:26.575Z,100928.00
2018-12-29T09:15:55.695Z,100920.00
2018-12-29T09:18:25.070Z,100923.00
2018-12-29T09:20:54.167Z,100928.00
2018-12-29T09:23:23.294Z,100928.00
2018-12-29T09:25:52.645Z,100926.00
2018-12-29T09:28:21.752Z,100924.00
2018-12-29T09:30:50.884Z,100928.00
2018-12-29T09:33:20.019Z,100927.00
2018-12-29T09:35:49.117Z,100937.00
2018-12-29T09:38:18.611Z,100940.00
2018-12-29T09:40:47.997Z,100929.00
2018-12-29T09:43:17.408Z,100929.00
2018-12-29T09:45:46.847Z,100927.00
2018-12-29T09:48:15.978Z,100927.00
2018-12-29T09:50:45.576Z,100926.00
2018-12-29T09:53:14.951Z,100925.00
2018-12-29T09:55:44.199Z,100927.00
2018-12-29T09:58:13.659Z,100924.00
2018-12-29T10:00:43.329Z,100912.00
2018-12-29T10:03:12.439Z,100916.00
2018-12-29T10:05:42.410Z,100923.00
2018-12-29T10:08:11.494Z,100910.00
2018-12-29T10:10:40.735Z,100900.00
2018-12-29T10:13:09.884Z,100898.00
2018-12-29T10:15:39.241Z,100886.00
2018-12-29T10:18:08.589Z,100889.00
2018-12-29T10:20:57.017Z,100886.00
2018-12-29T10:23:26.147Z,100881.00
2018-12-29T10:25:55.247Z,100875.00
2018-12-29T10:28:24.642Z,100876.00
2018-12-29T10:30:53.741Z,100874.00
2018-12-29T10:33:22.900Z,100870.00
2018-12-29T10:35:52.551Z,100873.00
2018-12-29T10:38:21.895Z,100869.00
2018-12-29T10:40:51.003Z,100862.00
2018-12-29T10:43:20.388Z,100870.00
2018-12-29T10:45:49.494Z,100858.00
2018-12-29T10:48:18.882Z,100853.00
2018-12-29T10:50:48.279Z,100852.00
2018-12-29T10:53:17.493Z,100845.00
2018-12-29T10:55:46.635Z,100839.00
2018-12-29T10:58:15.752Z,100845.00
2018-12-29T11:00:45.191Z,100830.00
2018-12-29T11:03:14.666Z,100833.00
2018-12-29T11:05:43.752Z,100830.00
2018-12-29T11:08:12.898Z,100839.00
2018-12-29T11:10:42.031Z,100835.00
2018-12-29T11:13:11.387Z,100836.00
2018-12-29T11:15:40.738Z,100834.00
2018-12-29T11:18:09.951Z,100822.00
2018-12-29T11:20:39.142Z,100821.00
2018-12-29T11:23:08.552Z,100819.00
2018-12-29T11:25:37.913Z,100817.00
2018-12-29T11:28:07.261Z,100811.00
2018-12-29T11:30:36.729Z,100815.00
2018-12-29T11:33:06.090Z,100814.00
2018-12-29T11:35:35.262Z,100807.00
2018-12-29T11:38:04.427Z,100800.00
2018-12-29T11:40:33.596Z,100786.00
2018-12-29T11:43:02.718Z,100782.00
2018-12-29T11:45:31.889Z,100781.00
2018-12-29T11:48:01.329Z,100772.00
2018-12-29T11:50:30.688Z,100770.00
2018-12-29T11:53:00.107Z,100778.00
2018-12-29T11:55:29.849Z,100769.00
2018-12-29T11:57:59.490Z,100769.00
2018-12-29T12:00:28.692Z,100782.00
2018-12-29T12:02:58.383Z,100772.00
2018-12-29T12:05:27.740Z,100765.00
2018-12-29T12:07:57.147Z,100762.00
2018-12-29T12:10:26.346Z,100751.00
2018-12-29T12:12:55.562Z,100748.00
2018-12-29T12:15:24.699Z,100747.00
2018-12-29T12:17:57.428Z,100738.00
2018-12-29T12:20:24.578Z,100742.00
2018-12-29T12:22:53.694Z,100736.00
2018-12-29T12:25:22.794Z,100744.00
2018-12-29T12:27:52.494Z,100723.00
2018-12-29T12:30:22.115Z,100728.00
2018-12-29T12:32:51.460Z,100719.00
2018-12-29T12:35:20.811Z,100726.00
2018-12-29T12:37:49.893Z,100733.00
2018-12-29T12:40:19.169Z,100731.00
2018-12-29T12:42:48.279Z,100724.00
2018-12-29T12:45:17.468Z,100722.00
2018-12-29T12:47:46.658Z,100735.00
2018-12-29T12:50:15.782Z,100737.00
2018-12-29T12:52:45.129Z,100731.00
2018-12-29T12:55:14.229Z,100737.00
2018-12-29T12:57:43.503Z,100731.00
2018-12-29T13:00:13.019Z,100724.00
2018-12-29T13:02:42.147Z,100723.00
2018-12-29T13:05:11.580Z,100727.00
2018-12-29T13:07:41.234Z,100729.00
2018-12-29T13:10:10.383Z,100726.00
2018-12-29T13:12:39.531Z,100717.00
2018-12-29T13:15:08.730Z,100725.00
2018-12-29T13:17:37.852Z,100720.00
2018-12-29T13:20:06.990Z,100724.00
2018-12-29T13:22:36.428Z,100728.00
2018-12-29T13:25:07.525Z,100716.00
2018-12-29T13:27:36.863Z,100719.00
2018-12-29T13:30:06.314Z,100711.00
2018-12-29T13:32:35.687Z,100711.00
2018-12-29T13:35:05.384Z,100709.00
2018-12-29T13:37:34.809Z,100711.00
2018-12-29T13:40:05.612Z,100710.00
2018-12-29T13:42:34.953Z,100710.00
2018-12-29T13:45:05.652Z,100715.00
2018-12-29T13:47:35.356Z,100710.00
2018-12-29T13:50:06.846Z,100713.00
2018-12-29T13:52:35.938Z,100714.00
2018-12-29T13:55:05.514Z,100716.00
2018-12-29T13:57:35.222Z,100717.00
2018-12-29T14:00:05.977Z,100713.00
2018-12-29T14:02:35.077Z,100725.00
2018-12-29T14:05:04.224Z,100733.00
2018-12-29T14:07:35.257Z,100728.00
2018-12-29T14:10:05.635Z,100720.00
2018-12-29T14:12:35.129Z,100729.00
2018-12-29T14:15:04.447Z,100729.00
2018-12-29T14:17:33.573Z,100731.00
2018-12-29T14:20:03.119Z,100731.00
2018-12-29T14:22:32.242Z,100728.00
2018-12-29T14:25:01.707Z,100723.00
2018-12-29T14:27:33.655Z,100718.00
2018-12-29T14:30:05.006Z,100719.00
2018-12-29T14:32:34.120Z,100720.00
2018-12-29T14:35:03.267Z,100726.00
2018-12-29T14:37:32.450Z,100739.00
2018-12-29T14:40:01.683Z,100725.00
2018-12-29T14:42:31.093Z,100714.00
2018-12-29T14:45:00.210Z,100710.00
2018-12-29T14:47:29.329Z,100713.00
2018-12-29T14:49:58.468Z,100700.00
2018-12-29T14:52:27.887Z,100699.00
2018-12-29T14:54:57.087Z,100697.00
2018-12-29T14:57:26.230Z,100691.00
2018-12-29T14:59:55.317Z,100685.00
2018-12-29T15:02:24.663Z,100672.00
2018-12-29T15:04:54.005Z,100671.00
2018-12-29T15:07:23.191Z,100676.00
2018-12-29T15:09:52.596Z,100675.00
2018-12-29T15:12:26.821Z,100670.00
2018-12-29T15:14:56.643Z,100671.00
2018-12-29T15:17:25.792Z,100669.00
2018-12-29T15:19:55.476Z,100662.00
2018-12-29T15:22:24.847Z,100665.00
2018-12-29T15:24:56.577Z,100655.00
2018-12-29T15:27:25.674Z,100634.00
2018-12-29T15:29:55.041Z,100625.00
2018-12-29T15:32:24.808Z,100635.00
2018-12-29T15:34:53.932Z,100640.00
2018-12-29T15:37:23.307Z,100638.00
2018-12-29T15:39:52.673Z,100637.00
2018-12-29T15:42:22.136Z,100625.00
2018-12-29T15:44:51.761Z,100610.00
2018-12-29T15:47:20.877Z,100621.00
2018-12-29T15:49:50.764Z,100617.00
2018-12-29T15:52:19.912Z,100620.00
2018-12-29T15:54:49.420Z,100619.00
2018-12-29T15:57:18.587Z,100613.00
2018-12-29T15:59:48.569Z,100608.00
2018-12-29T16:02:17.997Z,100607.00
2018-12-29T16:04:47.469Z,100599.00
2018-12-29T16:07:16.662Z,100591.00
2018-12-29T16:09:46.112Z,100582.00
2018-12-29T16:12:15.972Z,100588.00
2018-12-29T16:14:45.884Z,100572.00
2018-12-29T16:17:16.224Z,100580.00
2018-12-29T16:19:45.669Z,100569.00
2018-12-29T16:22:14.832Z,100566.00
2018-12-29T16:24:43.886Z,100573.00
2018-12-29T16:27:13.533Z,100565.00
2018-12-29T16:29:42.755Z,100550.00
2018-12-29T16:32:12.123Z,100552.00
2018-12-29T16:34:41.255Z,100558.00
2018-12-29T16:37:10.671Z,100540.00
2018-12-29T16:39:40.195Z,100535.00
2018-12-29T16:42:09.281Z,100544.00
2018-12-29T16:44:38.400Z,100538.00
2018-12-29T16:47:07.575Z,100534.00
2018-12-29T16:49:38.527Z,100537.00
2018-12-29T16:52:08.033Z,100523.00
2018-12-29T16:54:37.555Z,100513.00
2018-12-29T16:57:06.892Z,100515.00
2018-12-29T16:59:36.559Z,100509.00
2018-12-29T17:02:05.722Z,100510.00
2018-12-29T17:04:34.823Z,100509.00
2018-12-29T17:07:03.972Z,100517.00
2018-12-29T17:09:33.519Z,100522.00
2018-12-29T17:12:02.600Z,100519.00
2018-12-29T17:14:33.266Z,100517.00
2018-12-29T17:17:02.645Z,100518.00
2018-12-29T17:19:32.106Z,100515.00
2018-12-29T17:22:01.837Z,100515.00
2018-12-29T17:24:30.927Z,100511.00
2018-12-29T17:27:00.360Z,100509.00
2018-12-29T17:29:29.700Z,100526.00
2018-12-29T17:31:59.070Z,100525.00
2018-12-29T17:34:28.662Z,100529.00
2018-12-29T17:36:58.303Z,100529.00
2018-12-29T17:39:28.232Z,100542.00
2018-12-29T17:41:57.890Z,100536.00
2018-12-29T17:44:27.185Z,100548.00
2018-12-29T17:46:56.532Z,100547.00
2018-12-29T17:49:25.610Z,100543.00
2018-12-29T17:51:55.105Z,100544.00
2018-12-29T17:54:24.472Z,100546.00
2018-12-29T17:56:53.838Z,100547.00
2018-12-29T17:59:22.929Z,100546.00
2018-12-29T18:01:52.603Z,100543.00
2018-12-29T18:04:21.977Z,100550.00
2018-12-29T18:06:51.410Z,100529.00
2018-12-29T18:09:20.503Z,100482.00
2018-12-29T18:11:49.942Z,100497.00
2018-12-29T18:14:19.127Z,100499.00
2018-12-29T18:16:48.359Z,100498.00
2018-12-29T18:19:18.068Z,100468.00
2018-12-29T18:21:47.271Z,100458.00
2018-12-29T18:24:16.659Z,100464.00
2018-12-29T18:26:45.798Z,100469.00
2018-12-29T18:29:14.925Z,100468.00
2018-12-29T18:31:44.282Z,100443.00
2018-12-29T18:34:13.373Z,100436.00
2018-12-29T18:36:42.764Z,100419.00
2018-12-29T18:39:11.846Z,100413.00
2018-12-29T18:41:41.210Z,100410.00
2018-12-29T18:44:11.203Z,100412.00
2018-12-29T18:46:40.287Z,100398.00
2018-12-29T18:49:09.387Z,100390.00
2018-12-29T18:51:38.751Z,100383.00
2018-12-29T18:54:07.833Z,100349.00
2018-12-29T18:56:36.937Z,100369.00
2018-12-29T18:59:06.347Z,100365.00
2018-12-29T19:01:35.388Z,100378.00
2018-12-29T19:04:04.478Z,100396.00
2018-12-29T19:06:33.857Z,100385.00
2018-12-29T19:09:04.278Z,100369.00
2018-12-29T19:11:34.016Z,100363.00
2018-12-29T19:14:03.514Z,100360.00
2018-12-29T19:16:32.605Z,100352.00
2018-12-29T19:19:01.715Z,100356.00
2018-12-29T19:21:30.803Z,100335.00
2018-12-29T19:24:00.223Z,100344.00
2018-12-29T19:26:29.807Z,100331.00
2018-12-29T19:28:59.145Z,100316.00
2018-12-29T19:31:28.290Z,100308.00
2018-12-29T19:33:57.997Z,100290.00
2018-12-29T19:36:27.073Z,100284.00
2018-12-29T19:38:56.295Z,100272.00
2018-12-29T19:41:25.481Z,100278.00
2018-12-29T19:43:55.035Z,100267.00
2018-12-29T19:46:24.641Z,100266.00
2018-12-29T19:48:53.835Z,100261.00
2018-12-29T19:51:55.878Z,100249.00
2018-12-29T19:54:25.541Z,100244.00
2018-12-29T19:56:55.078Z,100238.00
2018-12-29T19:59:24.724Z,100242.00
2018-12-29T20:01:53.850Z,100239.00
2018-12-29T20:04:23.892Z,100233.00
2018-12-29T20:06:53.631Z,100220.00
2018-12-29T20:09:22.998Z,100206.00
2018-12-29T20:11:52.085Z,100207.00
2018-12-29T20:14:21.480Z,100216.00
2018-12-29T20:16:51.323Z,100220.00
2018-12-29T20:19:20.454Z,100209.00
2018-12-29T20:21:49.558Z,100204.00
2018-12-29T20:24:19.986Z,100201.00
2018-12-29T20:26:49.105Z,100185.00
2018-12-29T20:29:18.259Z,100183.00
2018-12-29T20:31:47.627Z,100176.00
2018-12-29T20:34:17.053Z,100178.00
2018-12-29T20:36:46.542Z,100163.00
2018-12-29T20:39:15.964Z,100153.00
2018-12-29T20:41:45.310Z,100133.00
2018-12-29T20:44:14.404Z,100143.00
2018-12-29T20:46:43.501Z,100143.00
2018-12-29T20:49:12.643Z,100132.00
2018-12-29T20:51:41.762Z,100142.00
2018-12-29T20:54:10.930Z,100124.00
2018-12-29T20:56:40.024Z,100126.00
2018-12-29T20:59:09.532Z,100120.00
2018-12-29T21:01:38.626Z,100131.00
2018-12-29T21:04:08.027Z,100122.00
2018-12-29T21:06:37.197Z,100113.00
2018-12-29T21:09:08.711Z,100113.00
2018-12-29T21:11:38.097Z,100100.00
2018-12-29T21:14:07.223Z,100102.00
2018-12-29T21:16:36.882Z,100098.00
2018-12-29T21:19:05.975Z,100085.00
2018-12-29T21:21:35.645Z,100087.00
2018-12-29T21:24:12.042Z,100091.00
2018-12-29T21:26:35.908Z,100074.00
2018-12-29T21:29:05.509Z,100069.00
2018-12-29T21:31:34.908Z,100055.00
2018-12-29T21:34:04.458Z,100060.00
2018-12-29T21:36:33.621Z,100051.00
2018-12-29T21:39:04.352Z,100044.00
2018-12-29T21:41:33.725Z,100043.00
2018-12-29T21:44:02.857Z,100051.00
2018-12-29T21:46:31.972Z,100048.00
2018-12-29T21:49:01.416Z,100045.00
2018-12-29T21:51:30.578Z,100034.00
2018-12-29T21:53:59.793Z,100038.00
2018-12-29T21:56:28.882Z,100029.00
2018-12-29T21:58:57.970Z,100035.00
2018-12-29T22:01:27.347Z,100030.00
2018-12-29T22:03:56.431Z,100027.00
2018-12-29T22:06:25.644Z,100022.00
2018-12-29T22:08:54.742Z,100018.00
2018-12-29T22:11:24.104Z,100017.00
2018-12-29T22:13:53.202Z,100011.00
2018-12-29T22:16:22.298Z,100009.00
2018-12-29T22:18:51.750Z,100007.00
2018-12-29T22:21:21.321Z,100010.00
2018-12-29T22:23:50.708Z,100002.00
2018-12-29T22:26:20.113Z,100003.00
2018-12-29T22:28:49.254Z,99995.00
2018-12-29T22:31:18.341Z,99991.00
2018-12-29T22:33:48.053Z,99994.00
2018-12-29T22:36:17.162Z,99993.00
2018-12-29T22:38:46.617Z,99998.00
2018-12-29T22:41:16.311Z,99991.00
2018-12-29T22:43:45.390Z,99995.00
2018-12-29T22:46:15.167Z,99986.00
2018-12-29T22:48:44.253Z,99991.00
2018-12-29T22:51:13.390Z,99986.00
2018-12-29T22:53:45.799Z,99988.00
2018-12-29T22:56:15.068Z,99985.00
2018-12-29T22:58:44.478Z,99989.00
2018-12-29T23:01:13.598Z,99976.00
2018-12-29T23:03:42.701Z,99982.00
2018-12-29T23:06:11.855Z,99978.00
2018-12-29T23:08:41.297Z,99970.00
2018-12-29T23:11:11.065Z,99966.00
2018-12-29T23:13:41.481Z,99958.00
2018-12-29T23:16:10.823Z,99951.00
2018-12-29T23:18:40.397Z,99953.00
2018-12-29T23:21:09.758Z,99956.00
2018-12-29T23:23:39.133Z,99955.00
2018-12-29T23:26:08.243Z,99953.00
2018-12-29T23:28:37.656Z,99940.00
2018-12-29T23:31:07.118Z,99945.00
2018-12-29T23:33:36.334Z,99955.00
2018-12-29T23:36:06.018Z,99942.00
2018-12-29T23:38:35.118Z,99939.00
2018-12-29T23:41:04.390Z,99950.00
2018-12-29T23:43:33.593Z,99948.00
2018-12-29T23:46:02.678Z,99953.00
2018-12-29T23:48:31.853Z,99946.00
2018-12-29T23:51:05.622Z,99946.00
2018-12-29T23:53:32.133Z,99956.00
2018-12-29T23:56:01.768Z,99949.00
2018-12-29T23:58:31.160Z,99947.00
